Time;durP1;ratioP1;P1;durP2;ratioP2;P2;SDS_P1;SDS_P2;PMS_P1;PMS_P2;Temp;Humidity;BMP_temperature;BMP_pressure;BME280_temperature;BME280_humidity;BME280_pressure;Samples;Min_cycle;Max_cycle;Signal;HPM_P1;HPM_P2
2022/08/03 00:01:40;;;;;;;5.67;3.63;;;17.60;99.90;18.20;97136.00;;;;5108831;28;20605;-74
2022/08/03 00:04:29;;;;;;;5.17;3.47;;;17.50;99.90;18.50;97145.00;;;;5108829;28;20650;-76
2022/08/03 00:07:18;;;;;;;5.57;3.60;;;17.40;99.90;18.50;97137.00;;;;5110202;28;20203;-77
2022/08/03 00:10:08;;;;;;;4.33;3.00;;;17.30;99.90;18.50;97143.00;;;;5109685;28;20205;-76
2022/08/03 00:12:58;;;;;;;4.40;4.00;;;17.30;99.90;18.50;97147.00;;;;5102138;28;20213;-78
2022/08/03 00:15:47;;;;;;;4.70;3.10;;;17.30;99.90;18.50;97140.00;;;;5103287;28;20710;-77
2022/08/03 00:18:35;;;;;;;4.20;3.60;;;17.30;99.90;18.50;97129.00;;;;5110309;28;20689;-75
2022/08/03 00:21:24;;;;;;;5.33;4.17;;;17.30;99.90;18.70;97135.00;;;;5110601;28;20203;-77
2022/08/03 00:24:13;;;;;;;4.47;3.30;;;17.30;99.90;18.90;97134.00;;;;5106949;28;20206;-77
2022/08/03 00:27:02;;;;;;;3.97;3.63;;;17.40;99.90;19.00;97133.00;;;;5103756;28;20198;-78
2022/08/03 00:29:52;;;;;;;6.03;4.67;;;17.40;99.90;19.00;97132.00;;;;5105895;28;20205;-78
2022/08/03 00:32:40;;;;;;;3.53;3.23;;;17.50;99.90;18.90;97137.00;;;;5103761;28;20198;-77
2022/08/03 00:35:30;;;;;;;4.20;3.50;;;17.50;99.90;18.80;97128.00;;;;5105194;28;20218;-77
2022/08/03 00:38:19;;;;;;;5.00;3.83;;;17.50;99.90;18.50;97120.00;;;;5102413;28;20223;-79
2022/08/03 00:41:07;;;;;;;6.50;3.73;;;17.50;99.90;18.60;97125.00;;;;5105113;28;20206;-77
2022/08/03 00:43:56;;;;;;;4.80;4.00;;;17.50;99.90;18.40;97124.00;;;;5102258;28;20214;-78
2022/08/03 00:46:46;;;;;;;8.37;3.87;;;17.40;99.90;18.20;97134.00;;;;5110049;28;20210;-77
2022/08/03 00:49:35;;;;;;;3.93;3.60;;;17.30;99.90;18.40;97125.00;;;;5111410;27;20198;-77
2022/08/03 00:52:24;;;;;;;3.40;3.10;;;17.30;99.90;18.40;97121.00;;;;5103769;28;20856;-77
2022/08/03 00:55:13;;;;;;;3.70;3.40;;;17.30;99.90;17.70;97129.00;;;;5109720;28;20296;-78
2022/08/03 00:58:05;;;;;;;3.77;3.33;;;17.20;99.90;17.80;97125.00;;;;5105110;28;20222;-71
2022/08/03 01:00:54;;;;;;;3.60;3.27;;;17.10;99.90;18.00;97125.00;;;;5103558;28;20276;-73
2022/08/03 01:03:44;;;;;;;3.73;3.43;;;17.00;99.90;17.80;97117.00;;;;5099082;28;20198;-76
2022/08/03 01:06:42;;;;;;;5.13;4.57;;;16.90;99.90;18.00;97129.00;;;;5109496;28;20208;-77
2022/08/03 01:09:41;;;;;;;4.77;3.63;;;16.90;99.90;17.80;97125.00;;;;5109343;28;20685;-76
2022/08/03 01:12:38;;;;;;;5.37;3.73;;;16.90;99.90;17.90;97124.00;;;;5108028;28;20205;-76
2022/08/03 01:15:36;;;;;;;6.43;4.87;;;16.90;99.90;17.80;97123.00;;;;5107004;28;20222;-76
2022/08/03 01:18:37;;;;;;;4.63;4.23;;;16.90;99.90;18.10;97119.00;;;;5110783;28;20218;-73
2022/08/03 01:21:33;;;;;;;9.13;5.57;;;16.90;99.90;18.30;97115.00;;;;5107835;28;20209;-73
2022/08/03 01:24:36;;;;;;;4.23;3.83;;;16.90;99.90;18.50;97114.00;;;;5107050;28;20222;-74
2022/08/03 01:27:34;;;;;;;4.30;3.87;;;17.00;99.90;18.40;97111.00;;;;5108989;28;20198;-76
2022/08/03 01:30:28;;;;;;;4.20;3.80;;;17.10;99.90;18.30;97105.00;;;;5109558;28;20198;-73
2022/08/03 01:33:22;;;;;;;3.77;3.40;;;17.10;99.90;17.90;97111.00;;;;5108891;28;20195;-77
2022/08/03 01:36:15;;;;;;;4.20;3.20;;;17.10;99.90;17.70;97112.00;;;;5108297;28;20222;-78
2022/08/03 01:39:08;;;;;;;3.87;3.47;;;17.00;99.90;17.70;97108.00;;;;5102672;28;20766;-75
2022/08/03 01:42:04;;;;;;;4.13;3.73;;;16.90;99.90;17.60;97118.00;;;;5104147;28;20198;-76
2022/08/03 01:44:55;;;;;;;4.70;3.77;;;16.80;99.90;17.90;97111.00;;;;5111102;28;20681;-75
2022/08/03 01:47:46;;;;;;;4.30;3.90;;;16.80;99.90;18.00;97110.00;;;;5105232;28;20201;-75
2022/08/03 01:50:36;;;;;;;3.93;3.63;;;16.80;99.90;17.80;97105.00;;;;5110131;28;20202;-76
2022/08/03 01:53:25;;;;;;;5.33;3.77;;;16.80;99.90;17.60;97113.00;;;;5108682;28;20205;-73
2022/08/03 01:56:16;;;;;;;5.40;4.03;;;16.70;99.90;17.60;97110.00;;;;5112281;28;20225;-76
2022/08/03 01:59:07;;;;;;;5.80;4.03;;;16.70;99.90;17.10;97106.00;;;;5108813;28;20219;-79
2022/08/03 02:01:58;;;;;;;3.73;3.27;;;16.60;99.90;17.20;97104.00;;;;5108678;28;20214;-77
2022/08/03 02:04:49;;;;;;;3.87;3.57;;;16.50;99.90;17.40;97097.00;;;;5107056;28;20214;-73
2022/08/03 02:07:40;;;;;;;4.13;3.73;;;16.40;99.90;17.50;97089.00;;;;5110319;28;20199;-74
2022/08/03 02:10:31;;;;;;;4.27;3.97;;;16.40;99.90;17.50;97094.00;;;;5111986;28;20202;-77
2022/08/03 02:13:21;;;;;;;3.80;3.50;;;16.40;99.90;17.30;97094.00;;;;5106296;28;20191;-74
2022/08/03 02:16:10;;;;;;;3.97;3.47;;;16.40;99.90;16.90;97104.00;;;;5103345;28;20218;-72
2022/08/03 02:19:02;;;;;;;4.60;3.73;;;16.30;99.90;17.00;97091.00;;;;5102530;28;20226;-72
2022/08/03 02:21:54;;;;;;;5.43;4.53;;;16.20;99.90;17.10;97090.00;;;;5111178;28;20199;-71
2022/08/03 02:24:43;;;;;;;5.60;4.50;;;16.20;99.90;17.20;97093.00;;;;5111782;28;20230;-77
2022/08/03 02:27:36;;;;;;;4.70;4.20;;;16.20;99.90;17.30;97095.00;;;;5111951;28;20190;-75
2022/08/03 02:30:35;;;;;;;4.37;3.53;;;16.20;99.90;16.90;97093.00;;;;5112741;28;20194;-76
2022/08/03 02:33:30;;;;;;;4.23;3.83;;;16.20;99.90;16.90;97090.00;;;;5112997;28;20853;-75
2022/08/03 02:36:24;;;;;;;4.07;3.70;;;16.10;99.90;16.40;97086.00;;;;5111877;28;20252;-74
2022/08/03 02:39:20;;;;;;;4.80;4.40;;;16.00;99.90;16.80;97096.00;;;;5107021;28;20214;-78
2022/08/03 02:42:10;;;;;;;8.30;4.87;;;15.90;99.90;17.00;97102.00;;;;5107161;28;20194;-74
2022/08/03 02:45:05;;;;;;;5.27;4.40;;;15.90;99.90;17.10;97094.00;;;;5111919;28;20226;-69
2022/08/03 02:48:00;;;;;;;7.00;4.63;;;16.00;99.90;17.20;97096.00;;;;5107709;28;20195;-69
2022/08/03 02:50:50;;;;;;;6.57;3.80;;;16.10;99.90;17.50;97091.00;;;;5110662;28;20194;-77
2022/08/03 02:53:40;;;;;;;4.50;4.10;;;16.20;99.90;17.60;97090.00;;;;5105326;28;20688;-77
2022/08/03 02:56:31;;;;;;;7.67;4.43;;;16.30;99.90;17.30;97098.00;;;;5112535;28;20194;-77
2022/08/03 02:59:21;;;;;;;4.00;3.70;;;16.30;99.90;16.90;97093.00;;;;5112729;28;20229;-78
2022/08/03 03:02:10;;;;;;;6.67;3.80;;;16.10;99.90;16.80;97096.00;;;;5113210;28;20191;-76
2022/08/03 03:05:01;;;;;;;7.07;5.87;;;16.00;99.90;16.60;97096.00;;;;5109867;28;20218;-77
2022/08/03 03:07:50;;;;;;;7.33;5.40;;;15.90;99.90;16.40;97083.00;;;;5112041;28;20199;-74
2022/08/03 03:10:41;;;;;;;9.20;5.13;;;15.80;99.90;16.40;97082.00;;;;5111048;28;20810;-73
2022/08/03 03:13:32;;;;;;;4.00;3.60;;;15.70;99.90;16.30;97090.00;;;;5108467;28;20221;-69
2022/08/03 03:16:22;;;;;;;5.20;4.37;;;15.60;99.90;16.60;97085.00;;;;5108945;28;20223;-69
2022/08/03 03:19:13;;;;;;;4.87;4.47;;;15.60;99.90;16.70;97100.00;;;;5112229;28;20615;-77
2022/08/03 03:22:03;;;;;;;4.40;4.00;;;15.70;99.90;16.30;97089.00;;;;5112225;28;20210;-72
2022/08/03 03:24:53;;;;;;;4.80;4.10;;;15.70;99.90;16.40;97088.00;;;;5110200;28;20606;-71
2022/08/03 03:27:43;;;;;;;4.00;3.60;;;15.60;99.90;16.00;97088.00;;;;5110643;28;20661;-72
2022/08/03 03:30:34;;;;;;;4.30;3.90;;;15.60;99.90;16.10;97085.00;;;;5110982;28;20213;-78
2022/08/03 03:33:23;;;;;;;5.83;4.67;;;15.50;99.90;16.20;97087.00;;;;5110684;28;21076;-69
2022/08/03 03:36:12;;;;;;;4.67;4.27;;;15.50;99.90;16.20;97087.00;;;;5111546;28;20225;-72
2022/08/03 03:39:00;;;;;;;5.83;5.00;;;15.40;99.90;16.20;97084.00;;;;5105360;28;20708;-73
2022/08/03 03:41:49;;;;;;;7.67;4.77;;;15.40;99.90;16.20;97086.00;;;;5109431;28;20202;-67
2022/08/03 03:44:38;;;;;;;5.70;3.73;;;15.40;99.90;16.40;97092.00;;;;5111671;28;20214;-72
2022/08/03 03:47:29;;;;;;;5.53;4.30;;;15.40;99.90;16.50;97093.00;;;;5109615;28;20210;-77
2022/08/03 03:50:19;;;;;;;5.20;4.70;;;15.50;99.90;16.80;97100.00;;;;5111266;28;20199;-77
2022/08/03 03:53:10;;;;;;;5.47;4.77;;;15.60;99.90;17.00;97085.00;;;;5109706;28;20542;-78
2022/08/03 03:56:00;;;;;;;5.33;3.77;;;15.70;99.90;16.80;97094.00;;;;5111653;28;20215;-71
2022/08/03 03:58:49;;;;;;;7.00;4.13;;;15.70;99.90;16.50;97088.00;;;;5111670;28;20588;-75
2022/08/03 04:01:38;;;;;;;5.13;3.67;;;15.60;99.90;16.10;97090.00;;;;5097950;28;20198;-76
2022/08/03 04:11:05;;;;;;;4.80;3.87;;;15.40;99.90;16.10;97106.00;;;;5111286;28;20206;-71
2022/08/03 04:13:59;;;;;;;4.93;4.50;;;15.40;99.90;16.30;97107.00;;;;5105201;28;20693;-77
2022/08/03 04:16:52;;;;;;;5.27;4.77;;;15.40;99.90;16.30;97111.00;;;;5106776;28;20199;-77
2022/08/03 04:19:47;;;;;;;4.93;4.43;;;15.40;99.90;16.40;97101.00;;;;5102559;28;20218;-75
2022/08/03 04:22:38;;;;;;;7.17;4.47;;;15.40;99.90;16.40;97102.00;;;;5109720;28;20604;-75
2022/08/03 04:25:31;;;;;;;4.93;4.53;;;15.40;99.90;16.50;97112.00;;;;5110874;28;20241;-79
2022/08/03 04:28:21;;;;;;;9.47;5.00;;;15.40;99.90;16.40;97117.00;;;;5111725;28;20195;-74
2022/08/03 04:31:10;;;;;;;5.50;5.00;;;15.40;99.90;16.40;97116.00;;;;5108581;28;20203;-73
2022/08/03 04:34:00;;;;;;;5.93;4.60;;;15.40;99.90;16.40;97119.00;;;;5098523;28;20202;-75
2022/08/03 04:36:57;;;;;;;6.33;4.53;;;15.50;99.90;16.70;97128.00;;;;5103822;28;20203;-74
2022/08/03 04:39:51;;;;;;;4.30;3.90;;;15.50;99.90;16.20;97128.00;;;;5110043;28;20218;-76
2022/08/03 04:42:42;;;;;;;5.40;4.50;;;15.50;99.90;16.30;97120.00;;;;5110795;28;20205;-73
2022/08/03 04:45:32;;;;;;;4.90;4.50;;;15.50;99.90;16.40;97122.00;;;;5110301;28;20218;-76
2022/08/03 04:48:22;;;;;;;5.07;4.67;;;15.50;99.90;16.40;97123.00;;;;5110888;28;20540;-72
2022/08/03 04:51:11;;;;;;;5.00;4.40;;;15.50;99.90;16.60;97138.00;;;;5108249;28;20199;-72
2022/08/03 04:54:02;;;;;;;5.30;4.80;;;15.60;99.90;16.70;97128.00;;;;5109670;28;20195;-76
2022/08/03 04:56:51;;;;;;;5.27;4.47;;;15.60;99.90;16.40;97127.00;;;;5110470;28;20359;-69
2022/08/03 04:59:40;;;;;;;5.53;4.87;;;15.60;99.90;16.80;97129.00;;;;5111150;28;20227;-71
2022/08/03 05:02:29;;;;;;;4.53;4.13;;;15.70;99.90;16.90;97135.00;;;;5101511;28;20568;-72
2022/08/03 05:05:18;;;;;;;5.67;4.77;;;15.80;99.90;16.70;97143.00;;;;5100876;28;20219;-77
2022/08/03 05:08:07;;;;;;;5.27;4.43;;;15.80;99.90;16.80;97137.00;;;;5100786;28;20195;-75
2022/08/03 05:10:58;;;;;;;6.10;4.73;;;15.80;99.90;16.50;97139.00;;;;5104476;28;20696;-78
2022/08/03 05:13:47;;;;;;;6.40;4.93;;;15.80;99.90;16.60;97133.00;;;;5100628;28;20192;-68
2022/08/03 05:16:36;;;;;;;4.83;4.33;;;15.70;99.90;16.90;97139.00;;;;5103623;28;20199;-74
2022/08/03 05:19:25;;;;;;;4.33;3.93;;;15.80;99.90;16.80;97132.00;;;;5109565;28;20226;-78
2022/08/03 05:22:13;;;;;;;5.17;4.67;;;15.90;99.90;17.10;97134.00;;;;5109015;28;20673;-76
2022/08/03 05:25:03;;;;;;;4.50;4.10;;;15.90;99.90;17.00;97132.00;;;;5108859;22;20243;-86
2022/08/03 05:27:53;;;;;;;5.20;4.70;;;16.00;99.90;17.20;97137.00;;;;5060244;28;20208;-86
2022/08/03 05:30:42;;;;;;;4.23;3.93;;;16.10;99.90;17.50;97141.00;;;;5067514;28;20204;-85
2022/08/03 05:33:31;;;;;;;5.37;4.83;;;16.20;99.90;17.30;97135.00;;;;5061372;28;20234;-87
2022/08/03 05:36:20;;;;;;;4.57;4.07;;;16.20;99.90;17.40;97130.00;;;;5063823;28;20331;-87
2022/08/03 05:39:09;;;;;;;6.20;4.50;;;16.30;99.90;17.70;97131.00;;;;5063451;28;20212;-86
2022/08/03 05:41:58;;;;;;;5.80;4.17;;;16.40;99.90;17.70;97136.00;;;;5070330;28;20209;-86
2022/08/03 05:44:48;;;;;;;5.80;4.20;;;16.50;99.90;17.90;97139.00;;;;5061344;28;20205;-87
2022/08/03 05:47:37;;;;;;;6.97;5.00;;;16.60;99.90;18.00;97138.00;;;;5063741;28;20192;-86
2022/08/03 05:50:26;;;;;;;7.53;4.90;;;16.70;99.90;18.20;97142.00;;;;5058104;28;20200;-86
2022/08/03 05:53:14;;;;;;;7.20;4.70;;;16.90;99.90;18.20;97134.00;;;;5063362;28;20197;-87
2022/08/03 05:56:05;;;;;;;5.67;4.83;;;16.90;99.90;18.30;97133.00;;;;5059220;28;20718;-86
2022/08/03 05:58:56;;;;;;;7.30;5.57;;;17.00;99.90;18.50;97139.00;;;;5060389;28;20192;-88
2022/08/03 06:01:47;;;;;;;5.93;5.00;;;17.10;99.90;18.70;97139.00;;;;5062964;28;20220;-90
2022/08/03 06:04:36;;;;;;;7.83;5.10;;;17.30;99.90;19.00;97137.00;;;;5065112;28;20261;-88
2022/08/03 06:07:26;;;;;;;7.17;5.33;;;17.50;99.90;19.30;97130.00;;;;5060456;28;20345;-88
2022/08/03 06:10:15;;;;;;;10.67;6.13;;;17.60;99.90;19.80;97139.00;;;;5061664;28;20718;-89
2022/08/03 06:13:04;;;;;;;8.80;5.67;;;17.90;99.90;19.80;97145.00;;;;5065808;28;20196;-89
2022/08/03 06:15:53;;;;;;;6.77;5.60;;;18.10;99.90;20.20;97139.00;;;;5062974;28;20231;-88
2022/08/03 06:18:43;;;;;;;8.13;6.77;;;18.40;99.90;20.60;97139.00;;;;5065216;28;20206;-90
2022/08/03 06:21:32;;;;;;;8.57;6.33;;;18.60;99.90;20.70;97142.00;;;;5064273;28;20196;-90
2022/08/03 06:24:21;;;;;;;7.50;6.40;;;18.80;99.90;21.00;97141.00;;;;5067428;28;20197;-89
2022/08/03 06:27:11;;;;;;;11.23;6.53;;;19.10;99.90;21.10;97149.00;;;;5073456;28;20215;-89
2022/08/03 06:29:59;;;;;;;8.63;6.33;;;19.20;99.90;21.00;97145.00;;;;5067157;28;20208;-88
2022/08/03 06:32:49;;;;;;;8.97;6.40;;;19.40;99.90;21.50;97147.00;;;;5061659;28;20204;-86
2022/08/03 06:35:40;;;;;;;12.73;6.53;;;19.60;99.90;21.50;97145.00;;;;5065740;28;20242;-86
2022/08/03 06:38:29;;;;;;;14.87;8.50;;;19.80;99.90;21.70;97149.00;;;;5063382;28;20200;-86
2022/08/03 06:41:18;;;;;;;9.87;6.47;;;19.90;99.90;21.90;97147.00;;;;5061150;28;20227;-86
2022/08/03 06:44:07;;;;;;;10.33;5.07;;;20.10;99.90;22.00;97151.00;;;;5065880;28;20199;-88
2022/08/03 06:46:57;;;;;;;5.90;4.93;;;20.20;99.90;22.20;97156.00;;;;5086260;28;20691;-85
2022/08/03 06:49:46;;;;;;;8.67;5.03;;;20.40;99.90;22.60;97145.00;;;;5061958;28;20208;-87
2022/08/03 06:52:36;;;;;;;10.23;5.93;;;20.60;99.90;22.90;97158.00;;;;5058897;28;20204;-86
2022/08/03 06:55:26;;;;;;;7.63;4.97;;;20.80;99.90;23.10;97155.00;;;;5062407;28;20223;-88
2022/08/03 06:58:15;;;;;;;11.43;5.63;;;21.00;99.90;23.30;97150.00;;;;5068051;28;20215;-86
2022/08/03 07:01:03;;;;;;;6.43;4.53;;;21.30;99.90;23.30;97150.00;;;;5064753;28;20248;-87
2022/08/03 07:03:53;;;;;;;5.63;4.53;;;21.40;99.90;23.60;97158.00;;;;5073231;28;20215;-85
2022/08/03 07:06:42;;;;;;;7.27;5.77;;;21.60;99.90;23.80;97158.00;;;;5089760;28;20230;-85
2022/08/03 07:09:32;;;;;;;7.37;5.20;;;21.70;99.90;23.90;97153.00;;;;5077548;28;20217;-88
2022/08/03 07:12:21;;;;;;;12.67;5.53;;;22.00;99.90;24.20;97153.00;;;;5093837;28;20200;-89
2022/08/03 07:15:11;;;;;;;7.87;4.63;;;22.10;99.90;24.40;97159.00;;;;5064715;28;20235;-86
2022/08/03 07:18:00;;;;;;;6.30;5.13;;;22.20;99.90;24.30;97156.00;;;;5064084;28;20225;-88
2022/08/03 07:20:49;;;;;;;6.97;4.57;;;22.40;99.90;24.60;97156.00;;;;5078237;28;20220;-86
2022/08/03 07:23:37;;;;;;;9.90;5.07;;;22.60;99.90;24.60;97162.00;;;;5073528;28;20192;-87
2022/08/03 07:26:27;;;;;;;7.17;5.20;;;22.70;99.90;24.80;97153.00;;;;5069280;28;20278;-88
2022/08/03 07:29:16;;;;;;;9.67;4.77;;;22.90;99.90;25.10;97156.00;;;;5066881;28;20557;-87
2022/08/03 07:32:06;;;;;;;5.43;3.93;;;23.00;99.90;25.40;97157.00;;;;5090986;28;20215;-86
2022/08/03 07:34:55;;;;;;;5.33;4.13;;;23.20;99.90;25.60;97160.00;;;;5092965;28;20203;-86
2022/08/03 07:37:47;;;;;;;9.00;4.93;;;23.40;99.90;25.80;97157.00;;;;5090507;28;20200;-86
2022/08/03 07:40:36;;;;;;;6.53;4.07;;;23.60;99.90;25.90;97154.00;;;;5079682;28;20223;-87
2022/08/03 07:43:26;;;;;;;5.53;4.70;;;23.70;99.90;26.10;97155.00;;;;5070566;28;20207;-87
2022/08/03 07:46:15;;;;;;;6.17;4.27;;;23.90;99.90;26.10;97154.00;;;;5065836;28;20223;-87
2022/08/03 07:49:04;;;;;;;5.40;3.60;;;24.10;99.90;25.80;97150.00;;;;5071744;28;20204;-89
2022/08/03 07:54:56;;;;;;;5.00;2.67;;;24.30;99.90;26.50;97159.00;;;;5069421;28;20199;-85
2022/08/03 07:57:44;;;;;;;5.13;3.23;;;24.40;99.90;26.60;97151.00;;;;5080791;28;20201;-88
2022/08/03 08:00:36;;;;;;;3.40;2.90;;;24.50;99.90;26.50;97152.00;;;;5065647;28;20229;-88
2022/08/03 08:03:27;;;;;;;3.13;2.83;;;24.60;99.90;26.70;97151.00;;;;5066535;28;20204;-89
2022/08/03 08:06:17;;;;;;;2.97;2.67;;;24.60;99.90;27.10;97150.00;;;;5066364;28;20225;-88
2022/08/03 08:09:06;;;;;;;3.00;2.70;;;24.80;99.90;27.10;97149.00;;;;5072480;28;20213;-87
2022/08/03 08:11:55;;;;;;;3.53;2.63;;;25.00;99.90;27.10;97145.00;;;;5069200;28;20213;-90
2022/08/03 08:14:45;;;;;;;3.37;2.93;;;25.10;99.90;27.30;97149.00;;;;5060771;28;20194;-88
2022/08/03 08:17:44;;;;;;;3.40;3.10;;;25.10;99.90;27.50;97151.00;;;;5092464;28;20207;-88
2022/08/03 08:20:36;;;;;;;3.60;2.90;;;25.40;99.90;27.80;97151.00;;;;5086461;28;20233;-88
2022/08/03 08:23:25;;;;;;;2.57;2.37;;;25.50;99.90;27.90;97149.00;;;;5073048;28;20583;-89
2022/08/03 08:26:14;;;;;;;3.57;2.57;;;25.70;99.90;28.00;97154.00;;;;5067136;28;20236;-87
2022/08/03 08:29:04;;;;;;;3.53;2.77;;;25.80;99.90;28.20;97149.00;;;;5068420;28;20210;-87
2022/08/03 08:31:55;;;;;;;5.67;2.50;;;26.00;99.90;28.30;97140.00;;;;5064380;28;20200;-87
2022/08/03 08:34:45;;;;;;;3.97;2.40;;;26.20;99.90;28.50;97152.00;;;;5069489;28;20209;-88
2022/08/03 08:37:34;;;;;;;2.63;2.43;;;26.30;99.90;28.50;97152.00;;;;5067629;28;20291;-87
2022/08/03 08:40:23;;;;;;;3.93;2.10;;;26.40;99.90;28.80;97144.00;;;;5065742;28;20205;-88
2022/08/03 08:43:12;;;;;;;3.50;2.60;;;26.50;99.90;29.00;97149.00;;;;5068441;28;20200;-88
2022/08/03 08:46:02;;;;;;;3.60;2.30;;;26.70;99.90;29.00;97145.00;;;;5075624;28;20208;-87
2022/08/03 08:48:52;;;;;;;3.27;2.40;;;26.90;99.90;29.10;97137.00;;;;5100137;28;20184;-90
2022/08/03 08:51:45;;;;;;;2.53;2.00;;;27.00;99.90;29.20;97146.00;;;;5081692;28;20213;-87
2022/08/03 08:54:36;;;;;;;4.03;2.63;;;27.10;99.90;29.30;97140.00;;;;5067907;28;20192;-87
2022/08/03 08:57:30;;;;;;;1.20;1.20;;;27.20;99.90;29.30;97157.00;;;;5057880;28;20208;-87
2022/08/03 09:00:30;;;;;;;3.30;1.53;;;27.20;99.90;29.60;97147.00;;;;5070403;28;20193;-88
2022/08/03 09:03:19;;;;;;;2.73;2.07;;;27.40;99.90;29.50;97146.00;;;;5069357;28;20209;-87
2022/08/03 09:06:08;;;;;;;1.50;1.40;;;27.50;99.90;29.20;97145.00;;;;5062923;28;20213;-90
2022/08/03 09:08:59;;;;;;;1.60;1.50;;;27.60;99.50;29.10;97133.00;;;;5066316;28;20222;-88
2022/08/03 09:11:49;;;;;;;1.80;1.70;;;27.60;99.50;29.60;97149.00;;;;5062495;28;20694;-87
2022/08/03 09:14:38;;;;;;;4.50;1.87;;;27.60;98.90;29.70;97137.00;;;;5076621;28;20204;-86
2022/08/03 09:18:05;;;;;;;1.40;1.30;;;27.70;98.30;30.10;97134.00;;;;5064239;28;20570;-87
2022/08/03 09:21:18;;;;;;;2.10;1.90;;;27.80;97.60;30.20;97137.00;;;;5068268;28;20218;-88
2022/08/03 09:24:24;;;;;;;1.50;1.40;;;28.00;97.50;30.40;97135.00;;;;5067489;28;20206;-89
2022/08/03 09:27:25;;;;;;;1.80;1.70;;;27.80;96.90;29.90;97137.00;;;;5066220;28;20189;-88
2022/08/03 09:30:15;;;;;;;3.20;1.90;;;28.20;96.00;30.40;97134.00;;;;5065286;28;20205;-87
2022/08/03 09:33:06;;;;;;;1.60;1.50;;;28.30;96.00;30.80;97130.00;;;;5071996;28;20233;-87
2022/08/03 09:35:57;;;;;;;1.90;1.53;;;28.40;95.30;31.00;97133.00;;;;5058250;28;20226;-87
2022/08/03 09:39:04;;;;;;;2.50;2.10;;;28.60;95.00;30.90;97140.00;;;;5076044;28;20255;-86
2022/08/03 09:42:08;;;;;;;2.20;2.00;;;28.80;93.50;30.90;97133.00;;;;5070784;28;20216;-90
2022/08/03 09:44:57;;;;;;;1.87;1.77;;;28.90;91.70;31.20;97124.00;;;;5066707;28;20206;-86
2022/08/03 09:47:46;;;;;;;2.90;1.70;;;29.00;92.20;30.90;97118.00;;;;5068125;28;20211;-85
2022/08/03 09:50:49;;;;;;;2.30;1.57;;;29.10;92.40;29.90;97118.00;;;;5066358;28;20201;-88
2022/08/03 09:53:44;;;;;;;3.13;1.60;;;28.80;87.20;30.80;97120.00;;;;5066416;28;20213;-88
2022/08/03 09:56:44;;;;;;;1.73;1.63;;;28.80;90.40;31.30;97121.00;;;;5064740;28;20226;-89
2022/08/03 09:59:35;;;;;;;1.77;1.50;;;28.90;90.80;31.40;97114.00;;;;5064999;28;20917;-88
2022/08/03 10:02:25;;;;;;;1.80;1.70;;;29.20;89.40;31.70;97105.00;;;;5063957;28;21060;-87
2022/08/03 10:05:14;;;;;;;1.90;1.80;;;29.30;90.20;31.90;97108.00;;;;5065310;28;20229;-88
2022/08/03 10:08:15;;;;;;;2.23;1.80;;;29.50;87.80;31.70;97092.00;;;;5062794;28;20210;-87
2022/08/03 10:11:04;;;;;;;1.97;1.43;;;29.70;86.80;32.00;97107.00;;;;5059655;28;20236;-86
2022/08/03 10:13:53;;;;;;;1.40;1.30;;;29.80;86.40;32.30;97100.00;;;;5060010;28;20213;-86
2022/08/03 10:16:43;;;;;;;3.20;1.65;;;30.00;87.80;32.70;97097.00;;;;5062109;28;20227;-90
2022/08/03 10:19:33;;;;;;;1.90;1.80;;;30.20;86.40;32.50;97089.00;;;;5063779;28;20200;-90
2022/08/03 10:22:23;;;;;;;3.05;1.60;;;30.40;83.10;32.40;97096.00;;;;5062946;28;20759;-86
2022/08/03 10:25:14;;;;;;;1.88;1.77;;;30.40;81.90;31.60;97094.00;;;;5059399;28;20231;-86
2022/08/03 10:28:04;;;;;;;1.73;1.63;;;30.40;83.70;32.40;97092.00;;;;5060911;28;20204;-87
2022/08/03 10:30:55;;;;;;;1.75;1.65;;;30.40;82.80;32.10;97097.00;;;;5061123;28;20202;-87
2022/08/03 10:33:50;;;;;;;1.80;1.70;;;30.50;79.50;30.60;97104.00;;;;5064639;28;20197;-89
2022/08/03 10:36:41;;;;;;;1.80;1.70;;;30.10;78.10;31.20;97117.00;;;;5067146;28;20238;-86
2022/08/03 10:39:30;;;;;;;1.50;1.40;;;29.80;79.50;30.60;97095.00;;;;5061951;28;20225;-86
2022/08/03 10:42:23;;;;;;;2.97;1.50;;;29.40;78.10;32.00;97072.00;;;;5066108;28;20231;-87
2022/08/03 10:45:20;;;;;;;2.03;1.83;;;29.60;81.20;32.00;97063.00;;;;5067879;28;20276;-87
2022/08/03 10:48:09;;;;;;;3.10;1.67;;;29.80;78.30;32.90;97065.00;;;;5073869;28;20201;-88
2022/08/03 10:51:00;;;;;;;2.38;2.10;;;30.10;80.70;33.60;97057.00;;;;5067011;28;20193;-88
2022/08/03 10:53:49;;;;;;;2.65;1.50;;;30.50;81.10;34.20;97052.00;;;;5070518;28;20201;-87
2022/08/03 11:00:02;;;;;;;1.70;1.60;;;31.40;79.70;33.30;97054.00;;;;5074973;28;20204;-87
2022/08/03 11:03:09;;;;;;;1.60;1.50;;;31.60;74.50;34.30;97047.00;;;;5074339;28;20242;-87
2022/08/03 11:06:17;;;;;;;3.05;1.55;;;31.80;75.60;33.30;97100.00;;;;5069216;28;20712;-86
2022/08/03 11:09:17;;;;;;;1.70;1.60;;;31.80;70.70;31.50;97032.00;;;;5070134;28;20203;-87
2022/08/03 11:12:23;;;;;;;1.70;1.60;;;31.30;70.40;33.40;97042.00;;;;5071176;28;20206;-87
2022/08/03 11:15:11;;;;;;;2.60;1.73;;;31.30;73.10;34.10;97044.00;;;;5075635;28;20214;-88
2022/08/03 11:18:10;;;;;;;2.03;1.83;;;31.50;72.40;34.90;97042.00;;;;5063248;28;20203;-85
2022/08/03 11:21:00;;;;;;;2.42;1.70;;;31.70;72.40;33.80;97033.00;;;;5075367;28;20788;-87
2022/08/03 11:23:51;;;;;;;2.05;1.83;;;31.80;67.30;34.20;97027.00;;;;5069841;28;20707;-88
2022/08/03 11:26:39;;;;;;;1.23;1.17;;;32.00;70.20;34.40;97040.00;;;;5069579;28;20250;-88
2022/08/03 11:29:31;;;;;;;1.88;1.77;;;32.10;72.60;35.00;97054.00;;;;5065431;28;20215;-87
2022/08/03 11:32:55;;;;;;;1.98;1.27;;;32.20;71.80;34.10;97029.00;;;;5068454;28;20197;-85
2022/08/03 11:36:00;;;;;;;1.50;1.38;;;32.30;68.10;35.20;97020.00;;;;5064767;28;20221;-85
2022/08/03 11:39:14;;;;;;;1.10;1.05;;;32.50;68.00;34.40;97028.00;;;;5067766;28;20661;-84
2022/08/03 11:42:47;;;;;;;3.10;1.70;;;32.50;66.40;34.70;97027.00;;;;5070188;28;20225;-85
2022/08/03 11:45:36;;;;;;;1.80;1.30;;;32.60;68.00;35.40;97008.00;;;;5061728;28;20666;-86
2022/08/03 11:48:34;;;;;;;1.50;1.40;;;32.80;66.70;35.10;97002.00;;;;5062439;28;20216;-86
2022/08/03 11:51:25;;;;;;;1.40;1.30;;;33.10;65.90;35.50;97014.00;;;;5059100;28;20202;-86
2022/08/03 11:54:21;;;;;;;1.40;1.30;;;33.20;64.90;33.10;97010.00;;;;5064242;28;20195;-86
2022/08/03 11:57:10;;;;;;;1.23;1.13;;;32.80;59.80;35.70;97001.00;;;;5072213;28;20982;-86
2022/08/03 12:00:00;;;;;;;1.58;1.30;;;33.10;63.40;35.50;97000.00;;;;5067319;28;20241;-88
2022/08/03 12:02:57;;;;;;;1.30;1.20;;;33.30;61.80;35.30;97000.00;;;;5070228;28;20599;-86
2022/08/03 12:05:49;;;;;;;1.45;1.35;;;33.30;61.90;33.30;97063.00;;;;5068028;28;20222;-86
2022/08/03 12:08:38;;;;;;;2.38;1.25;;;33.00;60.10;32.00;96991.00;;;;5066291;28;20577;-85
2022/08/03 12:11:29;;;;;;;1.60;1.50;;;32.00;60.90;34.00;96999.00;;;;5059407;28;20199;-84
2022/08/03 12:14:18;;;;;;;1.25;1.15;;;31.90;61.80;35.60;96989.00;;;;5062700;28;20210;-83
2022/08/03 12:17:09;;;;;;;1.75;1.10;;;32.30;62.70;36.70;96992.00;;;;5084248;28;20567;-86
2022/08/03 12:19:58;;;;;;;1.33;1.20;;;32.90;64.00;37.10;96981.00;;;;5067738;28;20214;-87
2022/08/03 12:22:47;;;;;;;1.25;1.15;;;33.50;62.90;37.50;96985.00;;;;5066889;28;20226;-87
2022/08/03 12:25:37;;;;;;;1.35;1.25;;;34.20;61.50;34.80;96975.00;;;;5062895;28;20231;-82
2022/08/03 12:28:29;;;;;;;1.48;1.20;;;34.10;57.90;32.00;96975.00;;;;5066953;28;20204;-84
2022/08/03 12:31:18;;;;;;;1.40;1.30;;;33.00;59.00;31.20;96983.00;;;;5064876;28;20249;-84
2022/08/03 12:34:08;;;;;;;1.42;1.33;;;31.70;59.00;30.50;97041.00;;;;5065617;28;20198;-83
2022/08/03 12:36:58;;;;;;;1.65;1.55;;;30.60;61.20;31.00;97045.00;;;;5065116;28;20249;-86
2022/08/03 12:39:50;;;;;;;1.58;1.48;;;30.20;62.70;30.80;97039.00;;;;5089545;28;20846;-86
2022/08/03 12:42:40;;;;;;;2.10;1.35;;;29.90;64.80;31.00;96951.00;;;;5090066;28;20227;-84
2022/08/03 12:45:30;;;;;;;1.50;1.40;;;29.80;66.00;32.90;96955.00;;;;5089812;28;20378;-86
2022/08/03 12:48:19;;;;;;;1.50;1.40;;;30.30;66.40;33.20;96955.00;;;;5065512;28;20395;-86
2022/08/03 12:51:09;;;;;;;1.40;1.30;;;30.90;65.10;33.90;96960.00;;;;5061456;28;20412;-90
2022/08/03 12:53:59;;;;;;;1.38;1.27;;;31.50;63.50;35.80;96949.00;;;;5065310;28;20758;-86
2022/08/03 12:56:58;;;;;;;1.70;1.60;;;32.10;65.20;36.70;96953.00;;;;5064358;28;20413;-86